Time;durP1;ratioP1;P1;durP2;ratioP2;P2;SDS_P1;SDS_P2;PMS_P1;PMS_P2;Temp;Humidity;BMP_temperature;BMP_pressure;BME280_temperature;BME280_humidity;BME280_pressure;Samples;Min_cycle;Max_cycle;Signal;HPM_P1;HPM_P2
2021/09/12 00:01:57;;;;;;;6.10;5.10;;;;;;;15.81;100.00;155422.53;5066688;28;20714;-81
2021/09/12 00:04:32;;;;;;;5.33;4.83;;;;;;;15.75;100.00;155408.22;5054615;28;20882;-81
2021/09/12 00:07:08;;;;;;;6.03;5.43;;;;;;;15.73;100.00;155403.03;5069481;28;20529;-81
2021/09/12 00:09:44;;;;;;;5.10;4.60;;;;;;;15.70;100.00;155395.22;5052297;28;20450;-81
2021/09/12 00:12:20;;;;;;;5.70;5.10;;;;;;;15.61;100.00;155371.84;5068597;28;20941;-81
2021/09/12 00:14:56;;;;;;;5.03;4.40;;;;;;;15.60;100.00;155369.22;5070619;28;20450;-81
2021/09/12 00:17:32;;;;;;;4.93;4.43;;;;;;;15.56;100.00;155358.84;5065329;28;20446;-81
2021/09/12 00:20:09;;;;;;;6.17;5.30;;;;;;;15.56;100.00;155358.84;5054412;28;20457;-82
2021/09/12 00:22:44;;;;;;;6.03;4.80;;;;;;;15.53;100.00;155349.75;5048396;28;20479;-81
2021/09/12 00:25:20;;;;;;;5.13;4.63;;;;;;;15.51;100.00;155345.88;5047907;28;20445;-82
2021/09/12 00:27:57;;;;;;;5.67;5.17;;;;;;;15.51;100.00;155344.56;5065738;28;20933;-82
2021/09/12 00:30:33;;;;;;;6.63;4.90;;;;;;;15.49;100.00;155340.63;5043754;28;20451;-81
2021/09/12 00:33:08;;;;;;;8.07;5.07;;;;;;;15.48;100.00;155338.06;5052897;28;20833;-81
2021/09/12 00:35:44;;;;;;;6.00;5.03;;;;;;;15.49;100.00;155340.63;5061124;28;20455;-81
2021/09/12 00:38:19;;;;;;;6.20;5.60;;;;;;;15.48;100.00;155336.75;5045325;28;20455;-81
2021/09/12 00:40:57;;;;;;;5.93;5.40;;;;;;;15.45;100.00;155328.91;5053321;28;20446;-81
2021/09/12 00:43:34;;;;;;;6.50;5.87;;;;;;;15.46;100.00;155332.81;5053477;28;20461;-81
2021/09/12 00:46:10;;;;;;;6.87;5.53;;;;;;;15.43;100.00;155325.00;5054369;28;20462;-81
2021/09/12 00:48:45;;;;;;;6.47;5.87;;;;;;;15.42;100.00;155322.41;5052748;28;20451;-81
2021/09/12 00:51:21;;;;;;;7.03;6.33;;;;;;;15.38;100.00;155311.97;5056563;28;20873;-82
2021/09/12 00:53:58;;;;;;;6.97;6.27;;;;;;;15.39;100.00;155314.59;5069987;28;20443;-82
2021/09/12 00:56:36;;;;;;;5.97;5.37;;;;;;;15.33;100.00;155298.97;5069829;28;20450;-82
2021/09/12 00:59:15;;;;;;;10.90;6.27;;;;;;;15.31;100.00;155293.78;5053450;28;20446;-82
2021/09/12 01:01:51;;;;;;;6.20;5.60;;;;;;;15.31;100.00;155292.50;5054047;28;20809;-81
2021/09/12 01:04:26;;;;;;;7.47;6.00;;;;;;;15.31;100.00;155293.78;5054033;28;20450;-81
2021/09/12 01:07:02;;;;;;;6.50;5.63;;;;;;;15.30;100.00;155291.22;5051567;28;20482;-81
2021/09/12 01:09:38;;;;;;;7.77;6.97;;;;;;;15.28;100.00;155286.00;5051335;28;20477;-81
2021/09/12 01:12:14;;;;;;;7.43;5.83;;;;;;;15.26;100.00;155280.81;5062527;28;20482;-81
2021/09/12 01:14:51;;;;;;;6.30;5.60;;;;;;;15.25;100.00;155278.19;5054221;28;20434;-81
2021/09/12 01:17:27;;;;;;;5.90;5.30;;;;;;;15.22;100.00;155270.44;5065835;28;20478;-81
2021/09/12 01:20:04;;;;;;;6.93;6.23;;;;;;;15.20;100.00;155265.19;5052380;28;20440;-81
2021/09/12 01:22:39;;;;;;;6.20;5.60;;;;;;;15.18;100.00;155260.00;5035771;28;20442;-81
2021/09/12 01:25:16;;;;;;;7.47;6.63;;;;;;;15.16;100.00;155256.13;5049942;28;20865;-81
2021/09/12 01:27:51;;;;;;;6.73;6.03;;;;;;;15.17;100.00;155258.72;5064991;28;20450;-81
2021/09/12 01:30:27;;;;;;;9.30;6.60;;;;;;;15.12;100.00;155245.72;5069256;28;20481;-81
2021/09/12 01:33:03;;;;;;;6.67;6.00;;;;;;;15.10;100.00;155239.22;5069141;28;20840;-81
2021/09/12 01:35:38;;;;;;;7.60;5.73;;;;;;;15.11;100.00;155243.16;5068163;28;20446;-81
2021/09/12 01:38:14;;;;;;;7.90;6.27;;;;;;;15.09;100.00;155236.66;5067127;28;20468;-81
2021/09/12 01:40:51;;;;;;;6.93;6.30;;;;;;;15.08;100.00;155234.03;5051941;28;20453;-81
2021/09/12 01:43:26;;;;;;;7.30;6.50;;;;;;;15.07;100.00;155231.41;5048500;28;20478;-81
2021/09/12 01:46:02;;;;;;;8.07;5.90;;;;;;;15.05;100.00;155226.22;5064156;28;20456;-81
2021/09/12 01:48:38;;;;;;;5.80;5.20;;;;;;;15.04;100.00;155223.63;5053200;28;20410;-81
2021/09/12 01:51:13;;;;;;;6.00;5.40;;;;;;;14.98;100.00;155208.06;5053558;28;20484;-81
2021/09/12 01:53:49;;;;;;;6.27;5.67;;;;;;;14.95;100.00;155201.56;5051757;28;20947;-81
2021/09/12 01:56:26;;;;;;;6.63;5.90;;;;;;;14.94;100.00;155197.66;5053462;28;21008;-81
2021/09/12 01:59:02;;;;;;;5.80;5.30;;;;;;;14.91;100.00;155191.16;5045889;28;20450;-81
2021/09/12 02:01:38;;;;;;;6.57;5.97;;;;;;;14.91;100.00;155189.84;5049100;28;20461;-81
2021/09/12 02:04:14;;;;;;;6.70;6.07;;;;;;;14.89;100.00;155184.66;5057561;28;20671;-80
2021/09/12 02:06:49;;;;;;;6.90;5.90;;;;;;;14.88;100.00;155182.09;5064028;28;20480;-80
2021/09/12 02:09:26;;;;;;;6.60;6.00;;;;;;;14.87;100.00;155179.47;5061079;28;20421;-80
2021/09/12 02:12:04;;;;;;;8.40;7.40;;;;;;;14.87;100.00;155179.47;5050503;28;20430;-81
2021/09/12 02:14:39;;;;;;;6.47;5.77;;;;;;;14.85;100.00;155174.28;5050357;28;20526;-81
2021/09/12 02:17:15;;;;;;;6.30;5.70;;;;;;;14.83;100.00;155170.34;5054347;28;20878;-80
2021/09/12 02:19:51;;;;;;;6.13;5.53;;;;;;;14.82;100.00;155166.47;5049723;28;20453;-80
2021/09/12 02:22:26;;;;;;;7.30;6.60;;;;;;;14.80;100.00;155161.31;5052025;28;20444;-80
2021/09/12 02:25:02;;;;;;;6.63;5.80;;;;;;;14.75;100.00;155149.56;5052002;28;20481;-80
2021/09/12 02:27:39;;;;;;;9.37;6.17;;;;;;;14.73;100.00;155143.09;5051146;28;20478;-80
2021/09/12 02:30:15;;;;;;;7.83;5.97;;;;;;;14.69;100.00;155132.72;5049322;28;20485;-80
2021/09/12 02:32:50;;;;;;;7.27;6.47;;;;;;;14.67;100.00;155127.53;5047255;28;20450;-80
2021/09/12 02:35:26;;;;;;;6.33;5.20;;;;;;;14.65;100.00;155123.59;5052514;28;20465;-80
2021/09/12 02:38:01;;;;;;;6.43;5.83;;;;;;;14.61;100.00;155114.50;5067692;28;20433;-80
2021/09/12 02:40:36;;;;;;;6.93;5.90;;;;;;;14.62;100.00;155115.81;5051533;28;20458;-80
2021/09/12 02:43:13;;;;;;;5.77;5.20;;;;;;;14.61;100.00;155113.25;5051366;28;20461;-80
2021/09/12 02:45:48;;;;;;;6.00;5.20;;;;;;;14.60;100.00;155110.63;5050386;28;20442;-80
2021/09/12 02:48:24;;;;;;;6.77;6.07;;;;;;;14.58;100.00;155105.44;5040380;28;20443;-80
2021/09/12 02:50:59;;;;;;;5.77;5.23;;;;;;;14.57;100.00;155102.81;5050631;28;20498;-80
2021/09/12 02:53:35;;;;;;;6.83;5.97;;;;;;;14.54;100.00;155096.31;5066606;28;20442;-80
2021/09/12 02:56:10;;;;;;;6.57;5.90;;;;;;;14.54;100.00;155095.03;5066921;28;20461;-80
2021/09/12 02:58:47;;;;;;;6.73;6.00;;;;;;;14.51;100.00;155088.53;5067204;28;20928;-80
2021/09/12 03:01:23;;;;;;;6.60;6.00;;;;;;;14.51;100.00;155088.53;5051697;28;20445;-80
2021/09/12 03:03:58;;;;;;;7.17;5.80;;;;;;;14.49;100.00;155083.34;5050924;28;20499;-81
2021/09/12 03:06:33;;;;;;;6.17;4.77;;;;;;;14.47;100.00;155078.16;5051111;28;20858;-81
2021/09/12 03:09:09;;;;;;;6.13;5.50;;;;;;;14.49;100.00;155083.34;5067614;28;20531;-80
2021/09/12 03:11:45;;;;;;;7.00;5.27;;;;;;;14.48;100.00;155080.72;5065747;28;20452;-80
2021/09/12 03:14:22;;;;;;;6.03;5.43;;;;;;;14.44;100.00;155069.06;5049248;28;20792;-80
2021/09/12 03:16:58;;;;;;;11.10;6.37;;;;;;;14.42;100.00;155063.88;5050371;28;20439;-80
2021/09/12 03:19:34;;;;;;;6.90;5.60;;;;;;;14.41;100.00;155062.56;5050309;28;20441;-80
2021/09/12 03:22:09;;;;;;;6.63;5.70;;;;;;;14.39;100.00;155057.38;5052332;28;20833;-80
2021/09/12 03:24:45;;;;;;;6.13;5.53;;;;;;;14.36;100.00;155048.28;5051752;28;20468;-80
2021/09/12 03:27:20;;;;;;;6.23;5.63;;;;;;;14.33;100.00;155041.78;5056044;28;20433;-80
2021/09/12 03:29:57;;;;;;;7.30;5.20;;;;;;;14.32;100.00;155037.91;5054439;28;20447;-80
2021/09/12 03:32:33;;;;;;;7.47;4.87;;;;;;;14.27;100.00;155024.88;5054762;28;20454;-80
2021/09/12 03:35:09;;;;;;;5.70;5.20;;;;;;;14.22;100.00;155013.16;5049617;28;20446;-80
2021/09/12 03:37:44;;;;;;;7.40;5.57;;;;;;;14.22;100.00;155011.84;5067937;28;20535;-80
2021/09/12 03:40:20;;;;;;;5.90;5.30;;;;;;;14.21;100.00;155010.59;5069755;28;20449;-80
2021/09/12 03:42:56;;;;;;;5.60;4.80;;;;;;;14.21;100.00;155010.59;5054651;28;20448;-80
2021/09/12 03:45:33;;;;;;;5.03;4.53;;;;;;;14.19;100.00;155005.34;5053971;28;20978;-80
2021/09/12 03:48:08;;;;;;;4.97;4.50;;;;;;;14.21;100.00;155010.59;5053907;28;20440;-80
2021/09/12 03:50:44;;;;;;;6.47;5.23;;;;;;;14.18;100.00;155002.78;5061133;28;20440;-79
2021/09/12 03:53:20;;;;;;;6.67;4.90;;;;;;;14.17;100.00;155000.19;5053813;28;20448;-80
2021/09/12 03:55:55;;;;;;;6.30;5.33;;;;;;;14.19;100.00;155004.09;5053836;28;20456;-80
2021/09/12 03:58:31;;;;;;;5.70;5.10;;;;;;;14.17;100.00;155000.19;5054720;28;20507;-80
2021/09/12 04:01:08;;;;;;;5.70;4.90;;;;;;;14.11;100.00;154983.31;5050596;28;20879;-80
2021/09/12 04:03:43;;;;;;;7.20;5.37;;;;;;;14.09;100.00;154979.41;5053395;28;20455;-80
2021/09/12 04:06:18;;;;;;;6.37;5.23;;;;;;;14.07;100.00;154974.22;5052460;28;20534;-80
2021/09/12 04:08:55;;;;;;;5.70;5.10;;;;;;;14.01;100.00;154958.63;5053639;28;20483;-80
2021/09/12 04:11:30;;;;;;;5.00;4.50;;;;;;;14.03;100.00;154963.84;5048806;28;20447;-80
2021/09/12 04:14:06;;;;;;;5.30;4.80;;;;;;;14.01;100.00;154958.63;5054457;28;20436;-80
2021/09/12 04:16:43;;;;;;;5.50;4.50;;;;;;;14.00;100.00;154956.06;5052476;28;20940;-79
2021/09/12 04:19:20;;;;;;;5.77;4.67;;;;;;;13.98;100.00;154952.13;5052864;28;20449;-80
2021/09/12 04:21:55;;;;;;;6.70;4.77;;;;;;;13.96;100.00;154946.94;5055069;28;20466;-79
2021/09/12 04:24:30;;;;;;;4.93;4.43;;;;;;;13.93;100.00;154939.16;5046678;28;20510;-80
2021/09/12 04:27:06;;;;;;;6.90;5.70;;;;;;;13.93;100.00;154937.84;5050608;28;20449;-80
2021/09/12 04:29:42;;;;;;;6.07;4.70;;;;;;;13.93;100.00;154937.84;5053040;28;20443;-80
2021/09/12 04:32:19;;;;;;;5.80;5.00;;;;;;;13.90;100.00;154931.38;5054129;28;20435;-79
2021/09/12 04:34:55;;;;;;;8.90;4.90;;;;;;;13.91;100.00;154932.66;5059276;28;20518;-80
2021/09/12 04:37:31;;;;;;;5.10;4.60;;;;;;;13.86;100.00;154921.00;5046621;28;20455;-80
2021/09/12 04:40:07;;;;;;;5.13;4.67;;;;;;;13.85;100.00;154917.06;5069892;28;20447;-80
2021/09/12 04:42:43;;;;;;;6.00;5.40;;;;;;;13.82;100.00;154909.34;5054759;28;20452;-80
2021/09/12 04:45:18;;;;;;;5.30;4.80;;;;;;;13.80;100.00;154904.09;5060864;28;20515;-80
2021/09/12 04:47:55;;;;;;;5.00;4.40;;;;;;;13.78;100.00;154898.91;5067655;28;20455;-79
2021/09/12 04:50:30;;;;;;;6.03;5.43;;;;;;;13.76;100.00;154893.75;5054616;28;20451;-80
2021/09/12 04:53:06;;;;;;;6.07;5.47;;;;;;;13.79;100.00;154901.53;5069740;28;20828;-79
2021/09/12 04:55:41;;;;;;;5.13;4.63;;;;;;;13.80;100.00;154905.41;5048327;28;20780;-79
2021/09/12 04:58:17;;;;;;;5.37;4.90;;;;;;;13.76;100.00;154893.75;5052696;28;20451;-79
2021/09/12 05:00:52;;;;;;;6.03;5.43;;;;;;;13.76;100.00;154893.75;5048239;28;20463;-80
2021/09/12 05:03:29;;;;;;;5.53;4.87;;;;;;;13.74;100.00;154889.81;5068532;28;20456;-79
2021/09/12 05:06:05;;;;;;;5.10;4.60;;;;;;;13.73;100.00;154885.94;5053583;28;20905;-80
2021/09/12 05:08:41;;;;;;;5.70;4.83;;;;;;;13.74;100.00;154888.56;5063367;28;20447;-80
2021/09/12 05:11:27;;;;;;;7.03;5.27;;;;;;;13.75;100.00;154892.44;5049601;28;20455;-80
2021/09/12 05:14:03;;;;;;;9.77;5.07;;;;;;;13.76;100.00;154893.75;5050800;28;20933;-79
2021/09/12 05:16:38;;;;;;;4.90;4.47;;;;;;;13.76;100.00;154895.06;5052556;28;20440;-79
2021/09/12 05:19:15;;;;;;;4.93;4.43;;;;;;;13.77;100.00;154896.31;5048872;28;20452;-80
2021/09/12 05:21:51;;;;;;;5.67;5.07;;;;;;;13.75;100.00;154891.13;5046947;28;20487;-79
2021/09/12 05:24:26;;;;;;;5.33;4.83;;;;;;;13.75;100.00;154892.44;5037331;28;20463;-79
2021/09/12 05:27:02;;;;;;;5.57;4.47;;;;;;;13.78;100.00;154898.91;5050192;28;20532;-79
2021/09/12 05:29:37;;;;;;;4.70;4.20;;;;;;;13.79;100.00;154901.53;5048265;28;20949;-79
2021/09/12 05:32:13;;;;;;;7.80;4.60;;;;;;;13.80;100.00;154904.09;5033830;28;20468;-79
2021/09/12 05:34:50;;;;;;;5.30;4.23;;;;;;;13.79;100.00;154902.78;5051727;28;20466;-79
2021/09/12 05:37:25;;;;;;;4.33;3.93;;;;;;;13.82;100.00;154909.34;5031805;28;20460;-79
2021/09/12 05:40:01;;;;;;;5.90;5.30;;;;;;;13.85;100.00;154917.06;5042894;28;20442;-79
2021/09/12 05:42:38;;;;;;;5.43;4.93;;;;;;;13.90;100.00;154930.06;5035269;28;20483;-79
2021/09/12 05:45:13;;;;;;;4.53;4.13;;;;;;;13.96;100.00;154945.66;5035090;28;20460;-79
2021/09/12 05:47:49;;;;;;;4.83;4.43;;;;;;;13.98;100.00;154950.81;5053251;28;20442;-79
2021/09/12 05:50:26;;;;;;;6.83;4.70;;;;;;;14.06;100.00;154971.59;5062304;28;20457;-80
2021/09/12 05:53:05;;;;;;;4.70;4.30;;;;;;;14.11;100.00;154984.59;5048178;28;20447;-80
2021/09/12 05:55:41;;;;;;;5.53;4.60;;;;;;;14.16;100.00;154996.31;5051168;28;20468;-80
2021/09/12 05:58:17;;;;;;;5.90;4.60;;;;;;;14.22;100.00;155013.16;5051212;28;20451;-80
2021/09/12 06:00:53;;;;;;;5.40;4.90;;;;;;;14.36;100.00;155049.59;5047256;28;20963;-80
2021/09/12 06:03:29;;;;;;;6.93;5.40;;;;;;;14.54;100.00;155096.31;5048401;28;20458;-80
2021/09/12 06:06:05;;;;;;;6.90;5.30;;;;;;;14.78;100.00;155156.06;5051462;28;20479;-80
2021/09/12 06:08:41;;;;;;;5.90;5.10;;;;;;;14.99;100.00;155210.63;5068301;28;20485;-80
2021/09/12 06:11:16;;;;;;;5.40;4.90;;;;;;;15.10;100.00;155239.22;5051321;28;20535;-80
2021/09/12 06:13:52;;;;;;;6.10;5.50;;;;;;;15.27;100.00;155283.44;5050930;28;20931;-80
2021/09/12 06:16:27;;;;;;;6.93;6.13;;;;;;;15.45;100.00;155330.19;5067843;28;20437;-80
2021/09/12 06:19:02;;;;;;;7.00;6.00;;;;;;;15.59;100.00;155366.66;5050726;28;20838;-80
2021/09/12 06:21:39;;;;;;;6.73;5.80;;;;;;;15.71;100.00;155397.84;5052022;28;20932;-80
2021/09/12 06:24:15;;;;;;;6.60;5.33;;;;;;;15.90;100.00;155445.94;5049653;28;20875;-81
2021/09/12 06:26:50;;;;;;;6.00;5.50;;;;;;;16.11;100.00;155499.25;5038857;28;20446;-80
2021/09/12 06:29:26;;;;;;;5.83;5.20;;;;;;;16.31;100.00;155551.25;5048076;28;20462;-81
2021/09/12 06:32:01;;;;;;;6.10;5.50;;;;;;;16.50;100.00;155600.66;5034974;28;20538;-81
2021/09/12 06:34:37;;;;;;;6.57;5.90;;;;;;;16.54;100.00;155611.16;5054862;28;20857;-81
2021/09/12 06:37:14;;;;;;;6.20;5.60;;;;;;;16.70;100.00;155652.78;5048851;28;20514;-81
2021/09/12 06:39:49;;;;;;;6.73;6.03;;;;;;;16.77;99.31;155669.66;5047714;28;20443;-82
2021/09/12 06:42:25;;;;;;;6.23;5.63;;;;;;;17.03;98.63;155738.63;5028543;28;20487;-82
2021/09/12 06:45:00;;;;;;;5.97;5.40;;;;;;;17.28;98.10;155801.09;5060541;28;20558;-81
2021/09/12 06:47:37;;;;;;;6.50;5.10;;;;;;;17.44;96.91;155842.75;5064641;28;20454;-81
2021/09/12 06:50:12;;;;;;;6.23;5.60;;;;;;;17.63;95.86;155893.53;5032723;28;20446;-82
2021/09/12 06:52:50;;;;;;;6.73;5.80;;;;;;;17.87;94.61;155954.72;5047438;28;20577;-82
2021/09/12 06:55:27;;;;;;;6.63;5.63;;;;;;;18.09;91.68;156010.72;5048893;28;20435;-82
2021/09/12 06:58:03;;;;;;;8.33;6.80;;;;;;;18.20;92.44;156040.69;5047705;28;20451;-82
2021/09/12 07:00:38;;;;;;;8.33;6.30;;;;;;;18.32;90.59;156069.38;5046852;28;20450;-82
2021/09/12 07:03:14;;;;;;;8.60;6.87;;;;;;;18.45;90.19;156103.22;5064037;28;20552;-82
2021/09/12 07:05:50;;;;;;;9.03;7.23;;;;;;;18.62;89.87;156148.84;5047232;28;20471;-83
2021/09/12 07:11:42;;;;;;;7.60;6.90;;;;;;;18.95;88.93;156233.56;5064859;22;20471;-83
2021/09/12 07:14:18;;;;;;;6.53;5.87;;;;;;;19.21;86.85;156301.31;5032524;28;20960;-83
2021/09/12 07:16:53;;;;;;;6.77;5.90;;;;;;;19.32;85.82;156330.00;5043702;28;20450;-83
2021/09/12 07:19:29;;;;;;;6.50;5.90;;;;;;;19.36;86.93;156339.09;5049862;28;20416;-83
2021/09/12 07:22:04;;;;;;;6.70;6.00;;;;;;;19.42;85.00;156354.78;5049035;28;20434;-83
2021/09/12 07:24:41;;;;;;;6.40;5.80;;;;;;;19.60;86.01;156400.41;5046877;28;20470;-83
2021/09/12 07:27:17;;;;;;;6.00;5.40;;;;;;;19.55;83.10;156388.69;5046724;28;20952;-84
2021/09/12 07:29:53;;;;;;;7.40;6.60;;;;;;;19.86;83.01;156468.19;5073845;28;20849;-84
2021/09/12 07:32:28;;;;;;;6.60;6.00;;;;;;;20.13;84.73;156537.31;5048223;28;20783;-83
2021/09/12 07:35:04;;;;;;;7.07;6.47;;;;;;;20.30;82.26;156583.03;5060877;28;20435;-84
2021/09/12 07:37:40;;;;;;;6.40;5.80;;;;;;;20.37;82.10;156601.28;5046132;28;20530;-84
2021/09/12 07:40:17;;;;;;;6.17;5.57;;;;;;;20.52;82.07;156640.41;5049668;28;20439;-82
2021/09/12 07:42:54;;;;;;;5.77;5.17;;;;;;;20.77;79.88;156703.03;5060121;28;20445;-84
2021/09/12 07:45:29;;;;;;;5.60;5.10;;;;;;;21.03;79.16;156770.88;5050821;28;20482;-84
2021/09/12 07:48:06;;;;;;;5.80;5.20;;;;;;;21.24;79.11;156827.03;5069734;28;20438;-84
2021/09/12 07:50:41;;;;;;;5.03;4.60;;;;;;;21.44;77.58;156876.66;5061196;28;20447;-85
2021/09/12 07:53:17;;;;;;;5.10;4.60;;;;;;;21.50;74.98;156893.59;5058980;28;20441;-84
2021/09/12 07:55:54;;;;;;;5.10;4.40;;;;;;;21.58;75.90;156914.47;5061081;28;20451;-84
2021/09/12 07:58:29;;;;;;;5.90;5.40;;;;;;;21.61;75.52;156922.31;5042442;28;20949;-84
2021/09/12 08:01:05;;;;;;;6.60;5.50;;;;;;;21.75;75.03;156958.91;5046982;28;20461;-84
2021/09/12 08:03:40;;;;;;;5.93;4.00;;;;;;;21.89;73.44;156992.88;5043140;28;20725;-84
2021/09/12 08:06:17;;;;;;;4.93;4.53;;;;;;;21.85;73.08;156985.00;5049827;28;20478;-84
2021/09/12 08:08:52;;;;;;;5.73;5.23;;;;;;;22.01;73.87;157025.53;5048519;28;20445;-84
2021/09/12 08:11:29;;;;;;;5.30;4.80;;;;;;;22.11;71.45;157051.63;5050485;28;20454;-85
2021/09/12 08:14:07;;;;;;;5.00;4.60;;;;;;;22.26;73.35;157089.53;5069223;28;20438;-84
2021/09/12 08:16:46;;;;;;;6.23;5.23;;;;;;;22.19;69.33;157071.22;5051880;28;20447;-84
2021/09/12 08:19:21;;;;;;;5.47;4.93;;;;;;;22.18;72.89;157069.94;5052105;28;20450;-84
2021/09/12 08:21:59;;;;;;;5.10;4.70;;;;;;;22.40;70.36;157126.06;5051796;28;20827;-84
2021/09/12 08:24:34;;;;;;;5.67;5.13;;;;;;;22.39;69.95;157123.47;5048981;28;20953;-84
2021/09/12 08:27:11;;;;;;;5.00;4.60;;;;;;;22.33;70.19;157109.13;5050513;28;20455;-84
2021/09/12 08:29:47;;;;;;;5.03;4.53;;;;;;;22.32;70.55;157106.47;5056221;28;20450;-84
2021/09/12 08:32:23;;;;;;;4.70;4.30;;;;;;;22.35;69.06;157113.00;5060495;28;20430;-83
2021/09/12 08:34:58;;;;;;;4.77;4.30;;;;;;;22.43;67.85;157133.91;5056403;28;20455;-83
2021/09/12 08:37:34;;;;;;;4.50;4.10;;;;;;;22.53;67.33;157160.03;5062694;28;20462;-83
2021/09/12 08:40:10;;;;;;;4.87;4.00;;;;;;;22.60;67.83;157178.34;5049843;28;20805;-83
2021/09/12 08:42:47;;;;;;;5.13;4.67;;;;;;;22.54;66.71;157162.66;5053426;28;20534;-83
2021/09/12 08:45:24;;;;;;;4.13;3.73;;;;;;;22.45;69.44;157139.16;5052729;28;20466;-83
2021/09/12 08:48:00;;;;;;;4.50;4.10;;;;;;;22.30;68.93;157101.25;5041632;28;20450;-83
2021/09/12 08:50:35;;;;;;;5.23;4.37;;;;;;;22.46;67.43;157141.75;5048516;28;20455;-83
2021/09/12 08:53:11;;;;;;;4.37;3.97;;;;;;;22.76;67.08;157220.22;5050387;28;20533;-83
2021/09/12 08:55:46;;;;;;;4.37;3.97;;;;;;;22.72;67.47;157209.72;5046320;28;20783;-83
2021/09/12 08:58:24;;;;;;;5.20;4.70;;;;;;;22.77;67.55;157222.78;5046493;28;20450;-83
2021/09/12 09:01:01;;;;;;;4.53;4.13;;;;;;;22.81;66.32;157233.25;5053168;28;20436;-83
2021/09/12 09:03:37;;;;;;;4.40;4.00;;;;;;;22.73;65.00;157211.03;5061399;28;20435;-83
2021/09/12 09:06:14;;;;;;;4.03;3.73;;;;;;;22.54;64.94;157162.66;5063853;28;20514;-83
2021/09/12 09:08:51;;;;;;;4.70;4.30;;;;;;;22.12;66.86;157052.94;5056694;28;20852;-83
2021/09/12 09:11:29;;;;;;;5.37;4.00;;;;;;;22.06;67.14;157037.25;5053470;28;20466;-83
2021/09/12 09:14:17;;;;;;;4.03;3.73;;;;;;;22.13;67.03;157056.88;5056189;28;20446;-82
2021/09/12 09:16:52;;;;;;;4.53;4.13;;;;;;;21.71;66.61;156948.44;5050656;28;20522;-82
2021/09/12 09:19:28;;;;;;;4.80;4.40;;;;;;;21.89;68.97;156992.88;5067555;28;20439;-82
2021/09/12 09:22:03;;;;;;;4.70;4.30;;;;;;;21.84;68.17;156982.38;5058434;28;20450;-82
2021/09/12 09:24:39;;;;;;;5.30;4.80;;;;;;;21.73;69.59;156953.69;5052882;28;20949;-82
2021/09/12 09:27:14;;;;;;;6.03;5.47;;;;;;;21.49;70.92;156891.03;5053562;28;20465;-82
2021/09/12 09:29:54;;;;;;;6.13;5.63;;;;;;;21.01;71.29;156765.66;5042972;28;20443;-82
2021/09/12 09:32:30;;;;;;;5.30;4.80;;;;;;;21.01;72.94;156765.66;5057207;28;20427;-82
2021/09/12 09:35:06;;;;;;;5.97;5.20;;;;;;;21.14;71.69;156799.63;5068523;28;21003;-82
2021/09/12 09:37:47;;;;;;;5.77;4.77;;;;;;;21.16;71.09;156804.84;5053678;28;20454;-82
2021/09/12 09:40:22;;;;;;;5.10;4.70;;;;;;;21.28;70.22;156834.88;5051971;28;20459;-82
2021/09/12 09:42:58;;;;;;;6.03;4.70;;;;;;;21.33;71.44;156849.25;5063351;28;20445;-82
2021/09/12 09:45:39;;;;;;;5.17;4.67;;;;;;;21.32;72.27;156846.63;5066976;28;20463;-82
2021/09/12 09:48:15;;;;;;;4.77;4.33;;;;;;;21.22;71.19;156820.53;5053320;28;20443;-82
2021/09/12 09:50:52;;;;;;;4.27;3.87;;;;;;;21.42;70.70;156871.44;5052972;28;20479;-82
2021/09/12 09:53:29;;;;;;;4.07;3.77;;;;;;;21.32;70.00;156845.31;5051451;28;20442;-82
2021/09/12 09:56:05;;;;;;;4.27;3.87;;;;;;;21.45;72.60;156879.22;5048460;28;20481;-82
2021/09/12 09:58:43;;;;;;;5.93;5.27;;;;;;;20.95;72.09;156750.00;5052156;28;20435;-82
2021/09/12 10:01:20;;;;;;;4.47;4.07;;;;;;;20.91;73.34;156739.56;5062303;28;20797;-82
2021/09/12 10:03:56;;;;;;;4.57;4.17;;;;;;;20.72;72.61;156689.97;5053796;28;20454;-81
2021/09/12 10:06:32;;;;;;;4.43;4.03;;;;;;;20.54;74.12;156645.59;5054619;28;20839;-82
2021/09/12 10:09:10;;;;;;;4.73;4.30;;;;;;;20.39;75.18;156605.16;5053283;28;20918;-81
2021/09/12 10:11:48;;;;;;;4.27;3.87;;;;;;;20.46;76.25;156623.47;5048897;28;20561;-82
2021/09/12 10:14:27;;;;;;;4.60;4.10;;;;;;;20.45;75.25;156622.16;5047923;28;20451;-82
2021/09/12 10:17:05;;;;;;;4.37;3.97;;;;;;;20.45;74.77;156620.84;5048848;28;20504;-81
2021/09/12 10:19:42;;;;;;;5.00;4.10;;;;;;;20.36;74.30;156598.66;5061627;28;20433;-81
2021/09/12 10:22:19;;;;;;;5.47;4.33;;;;;;;20.34;74.17;156593.44;5053094;28;20439;-81
2021/09/12 10:25:09;;;;;;;4.13;3.77;;;;;;;20.34;74.67;156592.13;5051369;28;20439;-82
2021/09/12 10:27:46;;;;;;;4.33;3.93;;;;;;;20.25;74.47;156570.00;5049193;28;20546;-81
2021/09/12 10:30:28;;;;;;;4.03;3.40;;;;;;;20.38;73.32;156602.59;5048170;28;20454;-82
2021/09/12 10:33:22;;;;;;;4.50;4.10;;;;;;;20.41;72.69;156610.44;5047503;28;20427;-82
2021/09/12 10:36:00;;;;;;;2.90;2.70;;;;;;;20.58;72.93;156656.06;5060192;28;20816;-81
2021/09/12 10:38:36;;;;;;;5.90;3.57;;;;;;;20.45;71.47;156620.84;5033328;28;20439;-82
2021/09/12 10:41:17;;;;;;;4.00;3.70;;;;;;;20.49;71.04;156631.28;5051096;28;20446;-81
2021/09/12 10:43:53;;;;;;;5.63;3.90;;;;;;;20.42;71.80;156614.31;5049193;28;20897;-81
2021/09/12 10:46:30;;;;;;;5.17;4.10;;;;;;;20.26;70.90;156572.56;5050102;28;20473;-81
2021/09/12 10:49:09;;;;;;;5.00;4.20;;;;;;;20.21;70.99;156559.50;5052199;28;20443;-82
2021/09/12 10:51:45;;;;;;;3.67;3.37;;;;;;;20.39;70.91;156605.16;5033624;28;20795;-81
2021/09/12 10:54:22;;;;;;;3.50;3.20;;;;;;;20.47;70.42;156626.03;5049554;28;20845;-81
2021/09/12 10:57:06;;;;;;;4.20;3.80;;;;;;;20.60;70.20;156661.28;5032921;28;20427;-81
2021/09/12 10:59:41;;;;;;;4.53;3.50;;;;;;;20.60;69.81;156661.28;5049983;28;20443;-82
2021/09/12 11:02:17;;;;;;;3.53;3.23;;;;;;;20.70;70.44;156686.09;5052185;28;20782;-82
2021/09/12 11:04:53;;;;;;;4.33;3.93;;;;;;;20.62;70.26;156665.22;5046113;28;20467;-81
2021/09/12 11:07:52;;;;;;;4.00;3.67;;;;;;;20.63;70.26;156669.09;5046012;28;20502;-82
2021/09/12 11:10:35;;;;;;;3.63;3.33;;;;;;;20.91;70.12;156739.56;5047938;28;20510;-81
2021/09/12 11:13:11;;;;;;;4.33;3.43;;;;;;;20.90;70.73;156738.25;5064142;28;20447;-81
2021/09/12 11:15:46;;;;;;;4.23;3.83;;;;;;;20.94;68.28;156747.41;5034894;28;20440;-81
2021/09/12 11:18:22;;;;;;;4.33;3.40;;;;;;;21.09;68.33;156786.59;5067476;28;20790;-82
2021/09/12 11:21:02;;;;;;;4.77;3.37;;;;;;;21.21;68.68;156819.22;5048060;28;20455;-82
2021/09/12 11:23:39;;;;;;;4.17;3.77;;;;;;;20.91;67.92;156739.56;5050848;28;20916;-82
2021/09/12 11:26:15;;;;;;;4.20;3.80;;;;;;;20.80;69.52;156710.84;5047653;28;20467;-81
2021/09/12 11:29:01;;;;;;;3.50;3.20;;;;;;;20.74;69.46;156695.19;5060135;28;20446;-81
2021/09/12 11:31:38;;;;;;;4.10;3.50;;;;;;;20.77;68.67;156704.34;5030154;28;20453;-74
2021/09/12 11:34:14;;;;;;;3.43;3.13;;;;;;;20.70;67.70;156686.09;5049591;28;20435;-74
2021/09/12 11:36:54;;;;;;;3.90;3.60;;;;;;;20.50;67.49;156633.88;5035295;28;20470;-74
2021/09/12 11:39:31;;;;;;;5.27;3.30;;;;;;;20.49;67.53;156632.56;5049544;28;20477;-74
2021/09/12 11:42:09;;;;;;;3.50;3.20;;;;;;;20.33;67.24;156590.81;5042513;28;20541;-74
2021/09/12 11:44:45;;;;;;;3.87;3.50;;;;;;;20.37;67.61;156599.97;5048575;28;21579;-74
2021/09/12 11:47:23;;;;;;;3.60;3.30;;;;;;;20.45;66.55;156622.16;5042502;28;20843;-74
2021/09/12 11:50:01;;;;;;;3.70;3.40;;;;;;;20.51;67.47;156637.81;5060949;28;20450;-74
2021/09/12 11:52:39;;;;;;;4.00;3.60;;;;;;;20.56;66.21;156649.53;5054521;28;20423;-74
2021/09/12 11:55:18;;;;;;;5.30;3.90;;;;;;;20.49;67.34;156631.28;5052338;28;20439;-74
2021/09/12 11:58:03;;;;;;;4.17;3.77;;;;;;;20.66;68.43;156675.63;5056108;28;20532;-74
2021/09/12 12:00:40;;;;;;;4.60;4.07;;;;;;;20.78;67.92;156705.66;5048764;28;20698;-74
2021/09/12 12:03:17;;;;;;;3.80;3.50;;;;;;;20.92;68.32;156742.16;5032296;28;20443;-75
2021/09/12 12:05:52;;;;;;;3.73;3.43;;;;;;;21.00;66.48;156763.03;5049853;28;20591;-74
2021/09/12 12:08:29;;;;;;;3.63;3.33;;;;;;;20.93;67.17;156746.09;5065293;28;20562;-74